METAR AND TAF INFORMATION
METAR FOR EDDT
ADDS - METARS form results

(1547 UTC 05 August 2020)
Data provider http://aviationweather.gov/metar/data/
 
METAR text: EDDT 051520Z 22006KT 170V280 CAVOK 28/07 Q1017 NOSIG
Conditions at: EDDT (BERLIN/TEGEL (FA, DE) observed 1520 UTC 05 August 2020
Temperature: 28.0°C (82°F)
Dewpoint: 7.0°C (45°F) [RH = 27%]
Pressure (altimeter): 30.03 inches Hg (1017.0 mb)
Winds: from the SW (220 degrees) at 7 MPH (6 knots; 3.1 m/s)
Visibility: 6 or more miles (10+ km)
Ceiling: ceiling and visibility are OK
Clouds: unknown
Weather: no significant weather observed at this time

METAR text: EDDT 051450Z 23009KT 190V260 CAVOK 28/07 Q1017 NOSIG
Conditions at: EDDT (BERLIN/TEGEL (FA, DE) observed 1450 UTC 05 August 2020
Temperature: 28.0°C (82°F)
Dewpoint: 7.0°C (45°F) [RH = 27%]
Pressure (altimeter): 30.03 inches Hg (1017.0 mb)
Winds: from the SW (230 degrees) at 10 MPH (9 knots; 4.6 m/s)
Visibility: 6 or more miles (10+ km)
Ceiling: ceiling and visibility are OK
Clouds: unknown
Weather: no significant weather observed at this time

Forecast for: EDDT (BERLIN/TEGEL (FA, DE)
Text: TAF EDDT 051100Z 0512/0612 21007KT CAVOK
Forecast period: 1200 to 1700 UTC 05 August 2020
Forecast type: FROM: standard forecast or significant change
Winds: from the SSW (210 degrees) at 8 MPH (7 knots; 3.6 m/s)
Visibility: 6 or more miles 10+ km)
Ceiling: unknown
Clouds: missing
Weather: NSW  (no significant weather)
Text: BECMG 0517/0520 13005KT
Forecast period: 1700 UTC 05 August 2020 to 1200 UTC 06 August 2020
Forecast type: BECOMING: Conditions expected to become as follows by 2000 UTC 05 August 2020
Winds: from the SE (130 degrees) at 6 MPH (5 knots; 2.6 m/s)
Visibility: 6 or more miles 10+ km)
Ceiling: unknown
Clouds: missing
Weather: NSW  (no significant weather)

 AIRPORT MAP

 RUNWAY INFORMATION
Runway 08L Runway length 9918 ft Runway width 151 ft
Runway elevation 110 ft Runway displaced threshold 0 ft Runway heading 81
Runway 26R Runway length 9918 ft Runway width 151 ft
Runway elevation 117 ft Runway displaced threshold 0 ft Runway heading 261
Runway 08R Runway length 7966 ft Runway width 151 ft
Runway elevation 109 ft Runway displaced threshold 341 ft Runway heading 81
Runway 26L Runway length 7966 ft Runway width 151 ft
Runway elevation 122 ft Runway displaced threshold 722 ft Runway heading 261

 AIRPORT FREQUENCIES
Type AFIS Name BERLIN INF Frequency 132.65 MHZ
Type APP Name BERLIN ARR Frequency 119.625 MHZ
Type ATIS Name ATIS Frequency 125.9 MHZ
Type DEP Name BERLIN DEP Frequency 120.625 MHZ
Type DIR Name BERLIN DIR Frequency 136.1 MHZ
Type GND Name GND Frequency 121.925 MHZ
Type RMP Name BERLIN MIL Frequency 136 MHZ
Type TWR Name TWR Frequency 124.525 MHZ

 AIRPORT NEAR NAVIGATION AIDS
Type NDB Name Tegel East Frequency 321 KHZ
Type NDB Name Tegel West Frequency 392 KHZ
Type VOR-DME Name Tegel Frequency 112300 KHZ



Powered by Virtual Airlines Manager [v2.6.2]

DutchAir is a free to use virtual airline